2VA2 weather

Melville Airstrip
Surry, Virginia, United States

Public forecast

Using degrees Fahrenheit for public forecast. Weather courtesy of forecast.io.

METAR (pilot weather report)

Closest report is Williamsburg Jamestown Airport, 6.6 nm (12.3 km) NNE. Retrieved 2019/07/23 06:35 UTC (21 minutes ago):

KJGG 230635Z AUTO 20006KT 10SM CLR 24/23 A2985 RMK AO1

TAF (pilot weather forecast)

Forecast is more than 12 hours old.

Closest forecast is Felker Army Air Field, 8.7 nm (16.1 km) E. Retrieved 2019/07/22 18:12 UTC (13 hours ago):

TAF TAF KFAF 221800Z 2218/2324 23012G20KT 9999 SCT060 QNH2980INS BECMG 2222/2223 22012G25KT 9999 SCT050 BKN070 QNH2979INS TEMPO 2303/2305 4800 -TSRA BKN050CB BECMG 2305/2306 27010KT 6000 -SHRA OVC025 QNH2980INS TEMPO 2314/2318 33010G15KT 4800 -TSRA OVC015CB TX36/2219Z TN22/2315Z LAST NO AMDS AFT 2303 NEXT 2310